Terminal Aerodrome Forecast
Issued by NWS

Home | Current Version | Previous Version | Text Only | Print | Product List | Glossary On
Versions: 1 2 3 4 5 6 7 8 9 10 11 12 13 14 15 16 17 18 19 20
000
FTUS43 KGRR 192337
TAFBTL
TAF
KBTL 192337Z 2000/2024 05003KT P6SM VCSH OVC020
     FM200400 00000KT 4SM BR BKN007
     FM200600 00000KT 1/2SM FG VV002
     FM201400 17004KT 4SM BR OVC012
     FM201600 18006KT P6SM SCT035=

USA.gov is the U.S. government's official web portal to all federal, state and local government web resources and services.